Time,TemperatureF,DewpointF,PressureIn,WindDirection,WindDirectionDegrees,WindSpeedMPH,WindSpeedGustMPH,Humidity,HourlyPrecipIn,Conditions,Clouds,dailyrainin,SolarRadiationWatts/m^2,SoftwareType,DateUTC
2013-09-09 00:14:00,56.7,45.0,30.17,ENE,63,1.0,9.0,66,0.00,,,0.00,0,weatherlink.com 1.10,2013-09-09 04:14:00,
2013-09-09 00:29:00,56.4,45.0,30.17,ESE,123,0.0,8.0,66,0.00,,,0.00,0,weatherlink.com 1.10,2013-09-09 04:29:00,
2013-09-09 00:44:00,56.1,44.0,30.18,NE,52,0.0,4.0,65,0.00,,,0.00,0,weatherlink.com 1.10,2013-09-09 04:44:00,
2013-09-09 00:59:00,55.7,44.0,30.18,ENE,78,4.0,7.0,66,0.00,,,0.00,0,weatherlink.com 1.10,2013-09-09 04:59:00,
2013-09-09 01:14:00,55.3,44.0,30.18,North,350,0.0,5.0,66,0.00,,,0.00,0,weatherlink.com 1.10,2013-09-09 05:14:00,
2013-09-09 01:29:00,54.9,44.0,30.18,NNE,32,0.0,5.0,68,0.00,,,0.00,0,weatherlink.com 1.10,2013-09-09 05:29:00,
2013-09-09 01:44:00,54.5,44.0,30.19,ENE,62,0.0,3.0,68,0.00,,,0.00,0,weatherlink.com 1.10,2013-09-09 05:44:00,
2013-09-09 01:59:00,54.3,45.0,30.19,ENE,64,0.0,2.0,70,0.00,,,0.00,0,weatherlink.com 1.10,2013-09-09 05:59:00,
2013-09-09 02:15:00,53.9,45.0,30.20,East,98,0.0,2.0,71,0.00,,,0.00,0,weatherlink.com 1.10,2013-09-09 06:15:00,
2013-09-09 02:30:00,53.5,45.0,30.20,NE,46,0.0,1.0,72,0.00,,,0.00,0,weatherlink.com 1.10,2013-09-09 06:30:00,
2013-09-09 02:45:00,53.0,45.0,30.20,East,98,0.0,2.0,74,0.00,,,0.00,0,weatherlink.com 1.10,2013-09-09 06:45:00,
2013-09-09 03:00:00,52.6,45.0,30.21,ENE,59,0.0,1.0,75,0.00,,,0.00,0,weatherlink.com 1.10,2013-09-09 07:00:00,
2013-09-09 03:15:00,52.2,45.0,30.21,ENE,59,0.0,4.0,77,0.00,,,0.00,0,weatherlink.com 1.10,2013-09-09 07:15:00,
2013-09-09 03:30:00,52.0,45.0,30.22,ENE,59,0.0,0.0,77,0.00,,,0.00,0,weatherlink.com 1.10,2013-09-09 07:30:00,
2013-09-09 03:45:00,51.8,45.0,30.23,ENE,72,0.0,1.0,78,0.00,,,0.00,0,weatherlink.com 1.10,2013-09-09 07:45:00,
2013-09-09 04:00:00,51.4,45.0,30.23,ENE,71,0.0,2.0,79,0.00,,,0.00,0,weatherlink.com 1.10,2013-09-09 08:00:00,
2013-09-09 04:15:00,51.2,45.0,30.23,ENE,65,0.0,1.0,79,0.00,,,0.00,0,weatherlink.com 1.10,2013-09-09 08:15:00,
2013-09-09 04:30:00,51.1,45.0,30.25,East,80,0.0,2.0,79,0.00,,,0.00,0,weatherlink.com 1.10,2013-09-09 08:30:00,
2013-09-09 04:45:00,51.0,44.0,30.25,NE,36,0.0,2.0,78,0.00,,,0.00,0,weatherlink.com 1.10,2013-09-09 08:45:00,
2013-09-09 05:00:00,50.8,44.0,30.26,East,88,0.0,2.0,78,0.00,,,0.00,0,weatherlink.com 1.10,2013-09-09 09:00:00,
2013-09-09 05:15:00,50.5,45.0,30.27,NE,51,0.0,2.0,80,0.00,,,0.00,0,weatherlink.com 1.10,2013-09-09 09:15:00,
2013-09-09 05:30:00,50.3,44.0,30.27,NE,55,0.0,2.0,79,0.00,,,0.00,0,weatherlink.com 1.10,2013-09-09 09:30:00,
2013-09-09 05:45:00,50.3,44.0,30.28,NE,51,0.0,2.0,78,0.00,,,0.00,0,weatherlink.com 1.10,2013-09-09 09:45:00,
2013-09-09 06:00:00,50.2,44.0,30.29,ESE,102,0.0,2.0,80,0.00,,,0.00,0,weatherlink.com 1.10,2013-09-09 10:00:00,
2013-09-09 06:15:00,50.0,44.0,30.29,East,96,0.0,1.0,79,0.00,,,0.00,0,weatherlink.com 1.10,2013-09-09 10:15:00,
2013-09-09 06:30:00,50.0,44.0,30.30,NE,42,0.0,2.0,79,0.00,,,0.00,0,weatherlink.com 1.10,2013-09-09 10:30:00,
2013-09-09 06:45:00,49.9,44.0,30.30,ENE,65,0.0,2.0,80,0.00,,,0.00,14,weatherlink.com 1.10,2013-09-09 10:45:00,
2013-09-09 07:00:00,49.9,45.0,30.31,NNE,30,0.0,2.0,82,0.00,,,0.00,21,weatherlink.com 1.10,2013-09-09 11:00:00,
2013-09-09 07:15:00,50.0,45.0,30.31,NE,42,1.0,2.0,82,0.00,,,0.00,26,weatherlink.com 1.10,2013-09-09 11:15:00,
2013-09-09 07:30:00,50.5,45.0,30.32,NE,44,0.0,8.0,81,0.00,,,0.00,33,weatherlink.com 1.10,2013-09-09 11:30:00,
2013-09-09 07:45:00,51.1,45.0,30.32,NNE,19,0.0,4.0,79,0.00,,,0.00,60,weatherlink.com 1.10,2013-09-09 11:45:00,
2013-09-09 08:00:00,52.1,45.0,30.32,ENE,73,3.0,4.0,77,0.00,,,0.00,216,weatherlink.com 1.10,2013-09-09 12:00:00,
2013-09-09 08:15:00,54.9,45.0,30.32,ENE,69,0.0,4.0,70,0.00,,,0.00,267,weatherlink.com 1.10,2013-09-09 12:15:00,
2013-09-09 08:30:00,57.5,45.0,30.32,ENE,72,0.0,3.0,63,0.00,,,0.00,315,weatherlink.com 1.10,2013-09-09 12:30:00,
2013-09-09 08:46:00,60.0,47.0,30.32,ENE,59,2.0,4.0,62,0.00,,,0.00,353,weatherlink.com 1.10,2013-09-09 12:46:00,
2013-09-09 09:01:00,61.1,46.0,30.32,NNW,343,0.0,6.0,57,0.00,,,0.00,360,weatherlink.com 1.10,2013-09-09 13:01:00,
2013-09-09 09:16:00,61.8,45.0,30.32,NNE,21,2.0,5.0,54,0.00,,,0.00,473,weatherlink.com 1.10,2013-09-09 13:16:00,
2013-09-09 09:31:00,62.9,46.0,30.33,NNE,30,0.0,4.0,55,0.00,,,0.00,418,weatherlink.com 1.10,2013-09-09 13:31:00,
2013-09-09 09:46:00,64.7,46.0,30.33,NE,54,2.0,4.0,51,0.00,,,0.00,510,weatherlink.com 1.10,2013-09-09 13:46:00,
2013-09-09 10:01:00,65.5,46.0,30.34,ESE,113,2.0,4.0,49,0.00,,,0.00,573,weatherlink.com 1.10,2013-09-09 14:01:00,
2013-09-09 10:16:00,66.7,46.0,30.33,NNE,19,0.0,4.0,47,0.00,,,0.00,587,weatherlink.com 1.10,2013-09-09 14:16:00,
2013-09-09 10:31:00,68.2,46.0,30.33,WSW,243,0.0,4.0,46,0.00,,,0.00,643,weatherlink.com 1.10,2013-09-09 14:31:00,
2013-09-09 11:01:00,67.9,44.0,30.33,South,184,0.0,2.0,42,0.00,,,0.00,613,weatherlink.com 1.10,2013-09-09 15:01:00,
2013-09-09 11:16:00,67.7,47.0,30.33,South,186,0.0,3.0,48,0.00,,,0.00,703,weatherlink.com 1.10,2013-09-09 15:16:00,
2013-09-09 11:31:00,67.7,46.0,30.33,WSW,246,0.0,3.0,46,0.00,,,0.00,436,weatherlink.com 1.10,2013-09-09 15:31:00,
2013-09-09 11:46:00,67.2,45.0,30.33,WSW,239,2.0,3.0,45,0.00,,,0.00,612,weatherlink.com 1.10,2013-09-09 15:46:00,
2013-09-09 12:01:00,66.8,47.0,30.32,North,5,0.0,2.0,49,0.00,,,0.00,476,weatherlink.com 1.10,2013-09-09 16:01:00,
2013-09-09 12:16:00,67.1,48.0,30.31,North,355,0.0,4.0,51,0.00,,,0.00,417,weatherlink.com 1.10,2013-09-09 16:16:00,
2013-09-09 12:31:00,67.2,48.0,30.31,SE,136,0.0,3.0,50,0.00,,,0.00,353,weatherlink.com 1.10,2013-09-09 16:31:00,
2013-09-09 12:46:00,67.2,49.0,30.31,ESE,111,0.0,3.0,52,0.00,,,0.00,489,weatherlink.com 1.10,2013-09-09 16:46:00,
2013-09-09 13:01:00,67.2,49.0,30.31,East,92,0.0,7.0,53,0.00,,,0.00,707,weatherlink.com 1.10,2013-09-09 17:01:00,
2013-09-09 13:16:00,68.0,50.0,30.30,South,180,0.0,5.0,52,0.00,,,0.00,443,weatherlink.com 1.10,2013-09-09 17:16:00,
2013-09-09 13:31:00,68.4,50.0,30.30,WSW,241,0.0,3.0,52,0.00,,,0.00,390,weatherlink.com 1.10,2013-09-09 17:31:00,
2013-09-09 13:46:00,68.9,50.0,30.29,NNE,18,0.0,4.0,51,0.00,,,0.00,496,weatherlink.com 1.10,2013-09-09 17:46:00,
2013-09-09 14:01:00,69.7,53.0,30.29,WSW,241,0.0,3.0,55,0.00,,,0.00,485,weatherlink.com 1.10,2013-09-09 18:01:00,
2013-09-09 14:16:00,70.3,52.0,30.29,SW,227,0.0,4.0,53,0.00,,,0.00,288,weatherlink.com 1.10,2013-09-09 18:16:00,
2013-09-09 14:31:00,70.1,52.0,30.28,South,188,0.0,2.0,53,0.00,,,0.00,494,weatherlink.com 1.10,2013-09-09 18:31:00,
2013-09-09 14:46:00,70.9,52.0,30.29,SSE,166,0.0,1.0,52,0.00,,,0.00,482,weatherlink.com 1.10,2013-09-09 18:46:00,
2013-09-09 15:01:00,71.2,53.0,30.29,ESE,116,1.0,3.0,52,0.00,,,0.00,689,weatherlink.com 1.10,2013-09-09 19:01:00,
2013-09-09 15:16:00,71.3,52.0,30.29,ESE,109,0.0,4.0,50,0.00,,,0.00,577,weatherlink.com 1.10,2013-09-09 19:16:00,
2013-09-09 15:31:00,71.0,50.0,30.28,NW,310,1.0,6.0,48,0.00,,,0.00,520,weatherlink.com 1.10,2013-09-09 19:31:00,
2013-09-09 15:46:00,70.6,52.0,30.28,ENE,78,0.0,5.0,52,0.00,,,0.00,306,weatherlink.com 1.10,2013-09-09 19:46:00,
2013-09-09 16:01:00,70.2,51.0,30.28,SSW,200,0.0,3.0,50,0.00,,,0.00,153,weatherlink.com 1.10,2013-09-09 20:01:00,
2013-09-09 16:16:00,69.3,51.0,30.27,WNW,291,0.0,3.0,53,0.00,,,0.00,111,weatherlink.com 1.10,2013-09-09 20:16:00,
2013-09-09 16:31:00,68.7,52.0,30.27,SSE,151,0.0,3.0,56,0.00,,,0.00,90,weatherlink.com 1.10,2013-09-09 20:31:00,
2013-09-09 16:46:00,68.2,52.0,30.27,East,88,1.0,2.0,56,0.00,,,0.00,63,weatherlink.com 1.10,2013-09-09 20:46:00,
2013-09-09 17:01:00,67.8,53.0,30.27,SSE,168,0.0,4.0,59,0.00,,,0.00,65,weatherlink.com 1.10,2013-09-09 21:01:00,
2013-09-09 17:16:00,67.2,53.0,30.26,SSE,157,0.0,8.0,61,0.00,,,0.00,65,weatherlink.com 1.10,2013-09-09 21:16:00,
2013-09-09 17:31:00,67.0,54.0,30.26,SW,229,0.0,4.0,63,0.00,,,0.00,56,weatherlink.com 1.10,2013-09-09 21:31:00,
2013-09-09 17:46:00,66.7,54.0,30.27,South,171,0.0,3.0,64,0.00,,,0.00,56,weatherlink.com 1.10,2013-09-09 21:46:00,
2013-09-09 18:01:00,66.3,54.0,30.27,SSE,167,0.0,1.0,65,0.00,,,0.00,39,weatherlink.com 1.10,2013-09-09 22:01:00,
2013-09-09 18:16:00,66.0,55.0,30.27,SW,236,0.0,2.0,67,0.00,,,0.00,33,weatherlink.com 1.10,2013-09-09 22:16:00,
2013-09-09 18:31:00,65.6,54.0,30.27,East,90,0.0,2.0,67,0.00,,,0.00,25,weatherlink.com 1.10,2013-09-09 22:31:00,
2013-09-09 18:46:00,65.1,54.0,30.25,North,360,0.0,1.0,68,0.00,,,0.00,16,weatherlink.com 1.10,2013-09-09 22:46:00,
2013-09-09 19:01:00,64.6,54.0,30.25,North,360,0.0,0.0,69,0.00,,,0.00,5,weatherlink.com 1.10,2013-09-09 23:01:00,
2013-09-09 19:16:00,64.0,54.0,30.25,SW,232,0.0,3.0,70,0.00,,,0.00,0,weatherlink.com 1.10,2013-09-09 23:16:00,
2013-09-09 19:31:00,63.5,54.0,30.25,SW,232,0.0,0.0,70,0.00,,,0.00,0,weatherlink.com 1.10,2013-09-09 23:31:00,
2013-09-09 19:47:00,63.0,54.0,30.26,WNW,288,0.0,1.0,72,0.00,,,0.00,0,weatherlink.com 1.10,2013-09-09 23:47:00,
2013-09-09 20:02:00,62.6,53.0,30.26,North,360,0.0,1.0,72,0.00,,,0.00,0,weatherlink.com 1.10,2013-09-10 00:02:00,
2013-09-09 20:17:00,62.2,53.0,30.27,North,5,0.0,1.0,73,0.00,,,0.00,0,weatherlink.com 1.10,2013-09-10 00:17:00,
2013-09-09 20:32:00,61.8,53.0,30.27,North,10,0.0,0.0,73,0.00,,,0.00,0,weatherlink.com 1.10,2013-09-10 00:32:00,
2013-09-09 20:47:00,61.4,53.0,30.27,East,100,0.0,0.0,74,0.00,,,0.00,0,weatherlink.com 1.10,2013-09-10 00:47:00,
2013-09-09 21:02:00,61.2,54.0,30.27,East,100,0.0,0.0,76,0.00,,,0.00,0,weatherlink.com 1.10,2013-09-10 01:02:00,
2013-09-09 21:17:00,60.9,54.0,30.27,East,100,0.0,0.0,77,0.00,,,0.00,0,weatherlink.com 1.10,2013-09-10 01:17:00,
2013-09-09 21:32:00,60.7,54.0,30.26,East,100,0.0,0.0,78,0.00,,,0.00,0,weatherlink.com 1.10,2013-09-10 01:32:00,
2013-09-09 21:47:00,60.3,54.0,30.26,East,100,0.0,0.0,79,0.00,,,0.00,0,weatherlink.com 1.10,2013-09-10 01:47:00,
2013-09-09 22:02:00,60.1,54.0,30.26,East,100,0.0,0.0,79,0.00,,,0.00,0,weatherlink.com 1.10,2013-09-10 02:02:00,
2013-09-09 22:17:00,59.9,54.0,30.25,East,100,0.0,0.0,81,0.00,,,0.00,0,weatherlink.com 1.10,2013-09-10 02:17:00,
2013-09-09 22:32:00,59.8,54.0,30.26,NE,49,0.0,1.0,82,0.00,,,0.00,0,weatherlink.com 1.10,2013-09-10 02:32:00,
2013-09-09 22:47:00,59.6,54.0,30.26,NE,49,0.0,0.0,83,0.00,,,0.00,0,weatherlink.com 1.10,2013-09-10 02:47:00,
2013-09-09 23:02:00,59.7,55.0,30.26,NE,49,0.0,0.0,84,0.00,,,0.00,0,weatherlink.com 1.10,2013-09-10 03:02:00,
2013-09-09 23:17:00,60.0,56.0,30.26,NE,49,0.0,0.0,85,0.00,,,0.00,0,weatherlink.com 1.10,2013-09-10 03:17:00,
2013-09-09 23:32:00,60.2,56.0,30.26,NE,49,0.0,0.0,85,0.00,,,0.00,0,weatherlink.com 1.10,2013-09-10 03:32:00,
2013-09-09 23:47:00,60.4,56.0,30.26,NE,49,0.0,0.0,85,0.00,,,0.00,0,weatherlink.com 1.10,2013-09-10 03:47:00,